Monterey, VA

11:54 PM EDT on April 21, 2015 (GMT -0400)
Elkins-Randolph County | | Change Station
CLOSE
Current Station
Airport
Location: Elkins,
Elevation: 1978 ft
Nearby Weather Stations

Elev 1978 ft 38.89 °N, 79.85 °W | Updated 3 minutes ago

Clear
Clear
50 °F
Feels Like 50 °F
N
9
Wind Variable Wind from SW
Gusts 32 mph

Today
High -- | Low -- °F
--% Chance of Precip.
Yesterday
High -- | Low -- °F
Precip. -- in
6:34 AM 8:00 PM
Waxing Crescent, 15% visible
Pressure 29.83 in
Visibility 10.0 miles
Clouds Clear
Dew Point 26 °F
Humidity 39%
Rainfall 0.13 in
Snow Depth Not available.
UV 0 out of 12
Pollen 10.90 out of 12
Air Quality Not available.
Flu Activity Local Activity
METAR KEKN 220351Z AUTO 22008G28KT 10SM CLR 10/M03 A2981 RMK AO2 PK WND 26030/0345 SLP100 T01001033 TSNO

More Conditions Fewer Conditions

Pressure 29.83 in
Visibility 10.0 miles
Clouds Clear
Dew Point 26 °F
Humidity 39%
Rainfall 0.13 in
Snow Depth Not available.
UV 0 out of 12
Pollen 10.90 out of 12
Air Quality Not available.
Flu Activity Local Activity
METAR KEKN 220351Z AUTO 22008G28KT 10SM CLR 10/M03 A2981 RMK AO2 PK WND 26030/0345 SLP100 T01001033 TSNO

More Conditions Fewer Conditions

10-Day Weather Forecast

Almanac

Astronomy

Apr. 21, 2015 Rise Set
Actual Time
Civil Twilight
Nautical Twilight
Astronomical Twilight
Moon
Length of Visible Light
Length of Day
Tomorrow will be .
, % of the Moon is Illuminated

Today's Extremes

State Highs State Lows

Community

WunderPhotos

Upload Photos

1,815,661 photos uploaded!

WunderBlogs® & News

Nearby

Air Quality

  Air Quality AQ Index Pollutant
Not available.

Snow Depth

Station Depth Elevation

Earthquake Activity

City Distance Mag. Time & Date
Minimum magnitude displayed is 2.5.

Coastal Water Temperatures

Place Temperature

Stations

Nearby Weather Stations

Station Location Temp. Windchill Dew Point Humidity Wind Precip. Elev Updated Type